createdAt,value
2023-03-15T00:00:23.987Z,9.93
2023-03-15T00:02:52.654Z,10.10
2023-03-15T00:05:23.026Z,12.73
2023-03-15T00:07:51.876Z,11.45
2023-03-15T00:10:20.609Z,9.95
2023-03-15T00:12:49.178Z,10.65
2023-03-15T00:15:17.785Z,12.25
2023-03-15T00:17:46.534Z,13.15
2023-03-15T00:20:20.290Z,12.25
2023-03-15T00:22:49.058Z,10.43
2023-03-15T00:25:17.694Z,9.88
2023-03-15T00:27:46.318Z,11.00
2023-03-15T00:30:14.622Z,11.00
2023-03-15T00:32:43.358Z,13.35
2023-03-15T00:35:13.684Z,14.43
2023-03-15T00:37:42.376Z,11.52
2023-03-15T00:40:11.901Z,16.77
2023-03-15T00:42:41.067Z,11.48
2023-03-15T00:45:10.444Z,10.27
2023-03-15T00:47:39.199Z,9.10
2023-03-15T00:50:08.025Z,8.70
2023-03-15T00:52:38.192Z,10.20
2023-03-15T00:55:07.263Z,11.25
2023-03-15T00:57:36.281Z,10.55
2023-03-15T01:00:06.451Z,11.02
2023-03-15T01:02:35.561Z,10.68
2023-03-15T01:05:04.298Z,9.02
2023-03-15T01:07:34.955Z,9.60
2023-03-15T01:10:05.503Z,9.55
2023-03-15T01:12:35.264Z,9.07
2023-03-15T01:15:05.466Z,10.25
2023-03-15T01:17:34.347Z,11.50
2023-03-15T01:20:03.031Z,12.48
2023-03-15T01:22:31.813Z,7.30
2023-03-15T01:25:00.464Z,11.98
2023-03-15T01:27:29.376Z,9.85
2023-03-15T01:29:58.136Z,10.40
2023-03-15T01:32:26.834Z,9.13
2023-03-15T01:34:55.449Z,12.88
2023-03-15T01:37:25.904Z,11.20
2023-03-15T01:39:54.578Z,11.80
2023-03-15T01:42:23.337Z,13.10
2023-03-15T01:45:03.676Z,13.20
2023-03-15T01:47:34.073Z,16.33
2023-03-15T01:50:07.620Z,12.07
2023-03-15T01:55:10.085Z,11.45
2023-03-15T01:57:42.707Z,15.70
2023-03-15T02:00:16.305Z,14.95
2023-03-15T02:05:23.041Z,17.83
2023-03-15T02:07:55.410Z,12.23
2023-03-15T02:10:45.809Z,13.07
2023-03-15T02:13:18.694Z,10.20
2023-03-15T02:16:10.506Z,11.02
2023-03-15T02:18:39.228Z,11.77
2023-03-15T02:21:22.879Z,12.85
2023-03-15T02:23:57.844Z,12.85
2023-03-15T02:26:26.452Z,9.70
2023-03-15T02:28:55.264Z,11.13
2023-03-15T02:31:24.031Z,14.50
2023-03-15T02:33:53.958Z,15.45
2023-03-15T02:36:30.440Z,11.95
2023-03-15T02:38:59.175Z,11.05
2023-03-15T02:41:38.634Z,12.00
2023-03-15T02:44:20.215Z,14.90
2023-03-15T02:46:52.014Z,12.07
2023-03-15T02:49:23.407Z,10.48
2023-03-15T02:51:52.050Z,10.07
2023-03-15T02:54:20.682Z,9.85
2023-03-15T02:56:49.372Z,12.18
2023-03-15T02:59:18.039Z,11.68
2023-03-15T03:01:46.514Z,10.25
2023-03-15T03:04:15.128Z,11.23
2023-03-15T03:06:45.316Z,10.95
2023-03-15T03:09:14.908Z,11.98
2023-03-15T03:11:43.530Z,11.25
2023-03-15T03:14:15.464Z,12.27
2023-03-15T03:16:44.265Z,10.77
2023-03-15T03:19:16.320Z,13.23
2023-03-15T03:21:45.647Z,12.10
2023-03-15T03:24:17.562Z,11.68
2023-03-15T03:26:49.082Z,10.98
2023-03-15T03:29:17.883Z,10.00
2023-03-15T03:31:46.741Z,15.43
2023-03-15T03:34:16.965Z,12.77
2023-03-15T03:36:46.065Z,11.93
2023-03-15T03:39:14.762Z,11.55
2023-03-15T03:41:43.472Z,12.30
2023-03-15T03:44:12.187Z,13.18
2023-03-15T03:46:40.927Z,14.20
2023-03-15T03:49:09.513Z,12.05
2023-03-15T03:51:39.161Z,16.80
2023-03-15T03:54:07.824Z,14.20
2023-03-15T03:56:36.501Z,12.57
2023-03-15T03:59:05.364Z,10.48
2023-03-15T04:01:35.047Z,12.95
2023-03-15T04:04:03.781Z,12.32
2023-03-15T04:06:32.779Z,12.73
2023-03-15T04:09:04.159Z,13.30
2023-03-15T04:11:32.802Z,12.10
2023-03-15T04:14:01.540Z,21.42
2023-03-15T04:16:30.410Z,13.57
2023-03-15T04:18:59.077Z,15.20
2023-03-15T04:21:27.122Z,23.17
2023-03-15T04:23:55.776Z,14.70
2023-03-15T04:26:27.896Z,13.10
2023-03-15T04:29:00.205Z,17.52
2023-03-15T04:31:28.950Z,15.95
2023-03-15T04:33:58.500Z,17.38
2023-03-15T04:36:27.539Z,13.85
2023-03-15T04:39:07.103Z,17.98
2023-03-15T04:41:36.533Z,16.75
2023-03-15T04:44:06.420Z,15.02
2023-03-15T04:46:35.379Z,29.50
2023-03-15T04:49:06.536Z,15.73
2023-03-15T04:51:35.889Z,13.80
2023-03-15T04:54:04.535Z,13.13
2023-03-15T04:56:33.546Z,12.73
2023-03-15T04:59:02.274Z,16.20
2023-03-15T05:01:33.280Z,18.65
2023-03-15T05:04:02.373Z,12.77
2023-03-15T05:06:31.374Z,12.38
2023-03-15T05:09:00.626Z,14.82
2023-03-15T05:11:29.449Z,23.73
2023-03-15T05:13:58.119Z,16.30
2023-03-15T05:16:27.234Z,24.77
2023-03-15T05:18:56.076Z,24.73
2023-03-15T05:21:24.994Z,24.02
2023-03-15T05:23:53.765Z,19.63
2023-03-15T05:26:22.575Z,16.65
2023-03-15T05:28:51.334Z,24.50
2023-03-15T05:31:20.450Z,17.38
2023-03-15T05:33:49.250Z,19.75
2023-03-15T05:36:18.311Z,18.48
2023-03-15T05:38:47.244Z,17.92
2023-03-15T05:41:19.305Z,16.50
2023-03-15T05:43:48.397Z,18.35
2023-03-15T05:46:17.201Z,16.77
2023-03-15T05:48:46.001Z,21.40
2023-03-15T05:51:14.876Z,21.42
2023-03-15T05:53:46.275Z,20.67
2023-03-15T05:56:15.307Z,19.50
2023-03-15T05:58:44.258Z,18.58
2023-03-15T06:01:13.017Z,16.98
2023-03-15T06:03:42.084Z,19.55
2023-03-15T06:06:11.927Z,18.98
2023-03-15T06:08:40.974Z,17.15
2023-03-15T06:11:09.105Z,18.77
2023-03-15T06:13:37.829Z,16.60
2023-03-15T06:16:06.963Z,17.38
2023-03-15T06:18:35.715Z,18.98
2023-03-15T06:21:04.479Z,18.42
2023-03-15T06:23:33.412Z,19.40
2023-03-15T06:26:02.126Z,15.23
2023-03-15T06:28:30.885Z,16.63
2023-03-15T06:30:59.748Z,17.60
2023-03-15T06:33:28.565Z,16.08
2023-03-15T06:35:57.316Z,17.92
2023-03-15T06:38:26.034Z,18.65
2023-03-15T06:40:54.761Z,20.50
2023-03-15T06:43:23.431Z,15.60
2023-03-15T06:45:52.518Z,15.70
2023-03-15T06:48:22.232Z,16.50
2023-03-15T06:50:51.053Z,16.92
2023-03-15T06:53:20.016Z,14.43
2023-03-15T06:55:49.472Z,18.38
2023-03-15T06:58:17.777Z,17.45
2023-03-15T07:00:46.529Z,17.58
2023-03-15T07:03:15.363Z,17.35
2023-03-15T07:05:43.484Z,19.08
2023-03-15T07:08:12.246Z,14.95
2023-03-15T07:10:41.149Z,15.52
2023-03-15T07:13:11.295Z,15.10
2023-03-15T07:15:40.320Z,16.90
2023-03-15T07:18:09.098Z,18.05
2023-03-15T07:20:38.016Z,16.98
2023-03-15T07:23:07.116Z,15.20
2023-03-15T07:25:48.272Z,17.60
2023-03-15T07:28:21.105Z,28.42
2023-03-15T07:31:03.555Z,22.80
2023-03-15T07:33:33.826Z,20.42
2023-03-15T07:36:05.678Z,16.30
2023-03-15T07:38:35.749Z,27.13
2023-03-15T07:41:05.779Z,19.88
2023-03-15T07:43:35.219Z,18.35
2023-03-15T07:46:04.643Z,20.08
2023-03-15T07:48:32.967Z,14.60
2023-03-15T07:51:01.781Z,15.75
2023-03-15T07:53:30.466Z,16.80
2023-03-15T07:55:59.242Z,14.75
2023-03-15T07:58:28.029Z,14.45
2023-03-15T08:00:58.017Z,20.02
2023-03-15T08:03:28.324Z,14.43
2023-03-15T08:06:00.145Z,16.52
2023-03-15T08:08:29.208Z,14.75
2023-03-15T08:10:58.368Z,17.98
2023-03-15T08:13:27.352Z,30.70
2023-03-15T08:15:56.267Z,18.13
2023-03-15T08:18:25.064Z,19.08
2023-03-15T08:20:53.722Z,20.35
2023-03-15T08:23:22.802Z,17.92
2023-03-15T08:25:51.762Z,20.17
2023-03-15T08:28:20.556Z,20.02
2023-03-15T08:30:49.417Z,18.38
2023-03-15T08:33:18.290Z,18.50
2023-03-15T08:35:47.449Z,14.68
2023-03-15T08:38:16.119Z,18.05
2023-03-15T08:40:45.894Z,17.58
2023-03-15T08:43:14.587Z,14.90
2023-03-15T08:45:59.809Z,15.15
2023-03-15T08:48:29.181Z,19.05
2023-03-15T08:51:04.351Z,22.83
2023-03-15T08:53:33.127Z,16.17
2023-03-15T08:56:01.856Z,16.23
2023-03-15T08:58:30.663Z,19.08
2023-03-15T09:00:59.307Z,14.32
2023-03-15T09:03:27.940Z,19.40
2023-03-15T09:06:00.361Z,21.00
2023-03-15T09:08:30.061Z,18.45
2023-03-15T09:10:59.837Z,16.17
2023-03-15T09:13:28.721Z,20.80
2023-03-15T09:15:58.676Z,19.95
2023-03-15T09:18:27.479Z,19.85
2023-03-15T09:20:57.664Z,16.45
2023-03-15T09:23:26.499Z,25.23
2023-03-15T09:25:55.295Z,17.90
2023-03-15T09:28:23.939Z,25.60
2023-03-15T09:30:52.705Z,18.65
2023-03-15T09:33:23.211Z,21.35
2023-03-15T09:35:55.139Z,20.27
2023-03-15T09:38:25.515Z,17.90
2023-03-15T09:40:59.571Z,15.70
2023-03-15T09:43:58.427Z,22.85
2023-03-15T09:46:34.560Z,20.20
2023-03-15T09:49:09.343Z,19.58
2023-03-15T09:52:21.077Z,19.88
2023-03-15T09:54:59.627Z,16.08
2023-03-15T09:57:52.554Z,20.70
2023-03-15T10:00:46.368Z,20.95
2023-03-15T10:03:25.945Z,22.83
2023-03-15T10:05:58.946Z,19.80
2023-03-15T10:08:28.009Z,21.05
2023-03-15T10:11:23.177Z,18.92
2023-03-15T10:14:12.777Z,22.27
2023-03-15T10:16:53.477Z,24.60
2023-03-15T10:20:07.712Z,22.13
2023-03-15T10:22:59.229Z,26.60
2023-03-15T10:25:29.490Z,21.73
2023-03-15T10:28:18.582Z,20.00
2023-03-15T10:30:52.772Z,20.85
2023-03-15T10:33:33.563Z,20.13
2023-03-15T10:36:11.056Z,22.73
2023-03-15T10:38:40.303Z,19.58
2023-03-15T10:41:09.971Z,22.50
2023-03-15T10:43:38.857Z,17.83
2023-03-15T10:46:15.906Z,22.25
2023-03-15T10:49:03.820Z,21.02
2023-03-15T10:51:36.113Z,21.98
2023-03-15T10:54:10.059Z,21.38
2023-03-15T10:56:46.356Z,22.23
2023-03-15T10:59:23.389Z,21.77
2023-03-15T11:01:55.320Z,22.48
2023-03-15T11:04:28.300Z,24.15
2023-03-15T11:07:00.145Z,29.80
2023-03-15T11:09:30.464Z,17.58
2023-03-15T11:12:03.859Z,22.38
2023-03-15T11:14:42.517Z,24.60
2023-03-15T11:17:19.949Z,24.58
2023-03-15T11:20:14.880Z,24.67
2023-03-15T11:22:44.100Z,19.60
2023-03-15T11:25:17.069Z,24.50
2023-03-15T11:27:48.209Z,24.23
2023-03-15T11:30:19.884Z,25.63
2023-03-15T11:32:49.315Z,18.23
2023-03-15T11:35:24.678Z,18.10
2023-03-15T11:38:06.258Z,22.80
2023-03-15T11:40:58.292Z,21.75
2023-03-15T11:43:40.816Z,20.85
2023-03-15T11:46:34.473Z,22.13
2023-03-15T11:49:31.080Z,24.58
2023-03-15T11:52:02.672Z,18.98
2023-03-15T11:54:36.286Z,21.00
2023-03-15T11:59:41.535Z,24.23
2023-03-15T12:02:16.135Z,26.85
2023-03-15T12:04:52.794Z,22.05
2023-03-15T12:07:21.500Z,23.48
2023-03-15T12:10:32.383Z,25.83
2023-03-15T12:13:09.085Z,28.45
2023-03-15T12:15:40.610Z,25.98
2023-03-15T12:18:16.706Z,21.40
2023-03-15T12:20:52.540Z,26.67
2023-03-15T12:23:21.230Z,33.75
2023-03-15T12:26:04.995Z,29.30
2023-03-15T12:28:37.813Z,25.95
2023-03-15T12:31:09.311Z,31.90
2023-03-15T12:33:56.402Z,27.98
2023-03-15T12:36:40.225Z,25.80
2023-03-15T12:41:48.056Z,21.98
2023-03-15T12:44:44.922Z,23.65
2023-03-15T12:47:14.508Z,18.92
2023-03-15T12:49:45.977Z,22.45
2023-03-15T12:52:17.458Z,26.23
2023-03-15T12:54:52.525Z,20.38
2023-03-15T12:57:23.944Z,18.90
2023-03-15T12:59:57.095Z,17.23
2023-03-15T13:02:45.615Z,21.27
2023-03-15T13:05:26.208Z,24.40
2023-03-15T13:07:59.700Z,23.38
2023-03-15T13:13:45.749Z,18.45
2023-03-15T13:16:26.689Z,19.42
2023-03-15T13:19:21.297Z,19.58
2023-03-15T13:22:03.107Z,18.95
2023-03-15T13:24:38.241Z,15.90
2023-03-15T13:27:38.040Z,20.40
2023-03-15T13:30:39.298Z,19.70
2023-03-15T13:33:35.410Z,20.08
2023-03-15T13:36:19.109Z,19.25
2023-03-15T13:38:55.732Z,28.02
2023-03-15T13:41:30.709Z,23.20
2023-03-15T13:44:02.904Z,20.77
2023-03-15T13:46:32.902Z,25.80
2023-03-15T13:49:02.676Z,26.90
2023-03-15T13:51:37.878Z,23.00
2023-03-15T13:54:09.028Z,32.03
2023-03-15T13:56:49.244Z,29.85
2023-03-15T13:59:19.244Z,28.83
2023-03-15T14:01:48.226Z,30.20
2023-03-15T14:04:20.376Z,23.33
2023-03-15T14:06:49.816Z,24.33
2023-03-15T14:09:24.651Z,26.00
2023-03-15T14:12:07.223Z,27.33
2023-03-15T14:14:39.290Z,28.05
2023-03-15T14:17:27.823Z,26.38
2023-03-15T14:19:58.711Z,26.73
2023-03-15T14:22:27.340Z,30.08
2023-03-15T14:24:56.042Z,28.35
2023-03-15T14:27:28.601Z,27.58
2023-03-15T14:30:01.640Z,21.63
2023-03-15T14:32:38.599Z,23.17
2023-03-15T14:35:18.852Z,28.17
2023-03-15T14:37:48.284Z,27.02
2023-03-15T14:40:24.807Z,26.52
2023-03-15T14:42:53.423Z,36.13
2023-03-15T14:45:25.664Z,37.88
2023-03-15T14:48:05.519Z,30.42
2023-03-15T14:50:45.244Z,30.08
2023-03-15T14:53:18.029Z,27.90
2023-03-15T14:55:46.823Z,30.15
2023-03-15T14:58:21.031Z,31.85
2023-03-15T15:00:51.798Z,27.58
2023-03-15T15:03:23.645Z,31.63
2023-03-15T15:05:52.684Z,32.95
2023-03-15T15:08:26.023Z,26.98
2023-03-15T15:10:57.626Z,27.50
2023-03-15T15:13:28.645Z,29.15
2023-03-15T15:15:58.224Z,30.13
2023-03-15T15:18:29.428Z,31.13
2023-03-15T15:20:59.545Z,35.08
2023-03-15T15:23:44.506Z,34.08
2023-03-15T15:26:27.441Z,20.95
2023-03-15T15:28:56.758Z,26.13
2023-03-15T15:31:27.425Z,31.08
2023-03-15T15:33:57.190Z,37.70
2023-03-15T15:36:32.759Z,27.02
2023-03-15T15:39:07.539Z,30.75
2023-03-15T15:41:36.653Z,34.72
2023-03-15T15:44:05.306Z,33.70
2023-03-15T15:46:34.414Z,39.70
2023-03-15T15:49:03.092Z,29.05
2023-03-15T15:51:44.171Z,34.28
2023-03-15T15:54:18.294Z,33.83
2023-03-15T15:57:05.064Z,34.95
2023-03-15T15:59:33.753Z,35.63
2023-03-15T16:02:02.846Z,33.08
2023-03-15T16:04:32.193Z,29.35
2023-03-15T16:07:05.569Z,33.30
2023-03-15T16:09:37.453Z,29.35
2023-03-15T16:12:18.540Z,26.63
2023-03-15T16:14:47.561Z,32.35
2023-03-15T16:17:18.462Z,27.48
2023-03-15T16:19:47.199Z,28.55
2023-03-15T16:22:16.066Z,27.80
2023-03-15T16:24:46.672Z,28.60
2023-03-15T16:27:17.332Z,32.58
2023-03-15T16:29:50.763Z,24.48
2023-03-15T16:32:36.836Z,29.05
2023-03-15T16:35:16.792Z,26.08
2023-03-15T16:40:23.526Z,21.98
2023-03-15T16:42:52.142Z,20.92
2023-03-15T16:45:21.226Z,26.05
2023-03-15T16:47:50.127Z,23.13
2023-03-15T16:50:19.483Z,21.38
2023-03-15T16:52:50.304Z,23.95
2023-03-15T16:55:26.534Z,20.15
2023-03-15T16:57:55.383Z,21.83
2023-03-15T17:00:24.815Z,23.83
2023-03-15T17:02:54.275Z,22.58
2023-03-15T17:05:25.681Z,21.77
2023-03-15T17:07:55.839Z,21.85
2023-03-15T17:10:30.616Z,19.10
2023-03-15T17:13:01.684Z,16.02
2023-03-15T17:15:31.269Z,21.60
2023-03-15T17:17:59.334Z,19.77
2023-03-15T17:20:29.714Z,19.45
2023-03-15T17:23:02.670Z,19.33
2023-03-15T17:25:32.617Z,21.65
2023-03-15T17:28:01.849Z,16.98
2023-03-15T17:30:33.286Z,15.27
2023-03-15T17:33:02.656Z,16.85
2023-03-15T17:35:41.175Z,17.83
2023-03-15T17:38:17.279Z,21.40
2023-03-15T17:40:46.217Z,16.08
2023-03-15T17:43:16.583Z,18.10
2023-03-15T17:45:45.606Z,18.98
2023-03-15T17:48:14.447Z,17.50
2023-03-15T17:50:45.952Z,20.25
2023-03-15T17:53:19.860Z,13.07
2023-03-15T17:55:50.480Z,14.32
2023-03-15T17:58:24.216Z,21.33
2023-03-15T18:00:55.794Z,32.45
2023-03-15T18:03:25.072Z,14.80
2023-03-15T18:05:53.928Z,21.80
2023-03-15T18:08:22.880Z,20.23
2023-03-15T18:10:52.497Z,15.98
2023-03-15T18:13:22.862Z,18.90
2023-03-15T18:15:52.581Z,14.68
2023-03-15T18:18:21.905Z,18.77
2023-03-15T18:20:50.927Z,18.95
2023-03-15T18:23:20.153Z,20.23
2023-03-15T18:25:49.580Z,21.85
2023-03-15T18:28:18.291Z,16.88
2023-03-15T18:30:46.924Z,23.63
2023-03-15T18:33:17.119Z,19.15
2023-03-15T18:35:46.110Z,14.40
2023-03-15T18:38:14.822Z,18.17
2023-03-15T18:40:44.006Z,18.50
2023-03-15T18:43:21.470Z,21.70
2023-03-15T18:45:50.266Z,21.60
2023-03-15T18:48:22.905Z,21.88
2023-03-15T18:50:56.789Z,20.65
2023-03-15T18:53:25.538Z,19.15
2023-03-15T18:55:54.162Z,27.17
2023-03-15T18:58:23.557Z,23.65
2023-03-15T19:00:52.224Z,18.40
2023-03-15T19:03:20.904Z,18.05
2023-03-15T19:05:49.562Z,26.67
2023-03-15T19:08:18.317Z,27.88
2023-03-15T19:10:48.657Z,21.02
2023-03-15T19:13:17.346Z,25.85
2023-03-15T19:15:46.067Z,18.50
2023-03-15T19:18:14.733Z,29.08
2023-03-15T19:20:43.409Z,18.23
2023-03-15T19:23:11.972Z,19.70
2023-03-15T19:25:40.729Z,21.95
2023-03-15T19:28:09.371Z,22.02
2023-03-15T19:30:38.065Z,20.20
2023-03-15T19:33:06.744Z,17.25
2023-03-15T19:35:35.969Z,26.75
2023-03-15T19:38:05.427Z,21.38
2023-03-15T19:40:34.121Z,19.13
2023-03-15T19:43:02.786Z,23.25
2023-03-15T19:45:31.430Z,29.88
2023-03-15T19:48:00.046Z,25.08
2023-03-15T19:50:32.520Z,32.38
2023-03-15T19:53:01.598Z,26.20
2023-03-15T19:55:31.670Z,19.63
2023-03-15T19:58:00.532Z,25.38
2023-03-15T20:00:29.341Z,25.38
2023-03-15T20:02:57.951Z,22.88
2023-03-15T20:05:26.979Z,35.83
2023-03-15T20:07:55.910Z,19.85
2023-03-15T20:10:24.905Z,18.10
2023-03-15T20:12:52.935Z,26.08
2023-03-15T20:15:22.335Z,22.27
2023-03-15T20:17:50.956Z,26.33
2023-03-15T20:20:20.865Z,22.17
2023-03-15T20:22:49.818Z,28.40
2023-03-15T20:25:20.080Z,18.83
2023-03-15T20:27:49.307Z,21.33
2023-03-15T20:30:18.690Z,13.50
2023-03-15T20:32:47.319Z,14.32
2023-03-15T20:35:15.997Z,17.13
2023-03-15T20:37:44.755Z,18.10
2023-03-15T20:40:15.820Z,18.40
2023-03-15T20:42:44.525Z,20.98
2023-03-15T20:45:14.987Z,13.95
2023-03-15T20:47:44.165Z,16.13
2023-03-15T20:50:14.532Z,16.60
2023-03-15T20:52:44.105Z,14.80
2023-03-15T20:55:13.447Z,16.60
2023-03-15T20:57:45.142Z,16.80
2023-03-15T21:00:19.636Z,13.15
2023-03-15T21:02:49.206Z,13.13
2023-03-15T21:05:18.601Z,16.95
2023-03-15T21:07:47.834Z,11.80
2023-03-15T21:10:17.138Z,12.07
2023-03-15T21:12:46.100Z,14.38
2023-03-15T21:15:18.379Z,14.82
2023-03-15T21:17:49.795Z,13.15
2023-03-15T21:20:19.618Z,18.27
2023-03-15T21:22:48.286Z,11.75
2023-03-15T21:25:17.416Z,15.43
2023-03-15T21:27:46.434Z,15.73
2023-03-15T21:30:15.413Z,13.23
2023-03-15T21:32:44.267Z,15.52
2023-03-15T21:35:13.215Z,11.70
2023-03-15T21:37:41.811Z,11.90
2023-03-15T21:40:12.681Z,9.80
2023-03-15T21:42:41.873Z,12.50
2023-03-15T21:45:11.336Z,9.88
2023-03-15T21:47:40.272Z,8.35
2023-03-15T21:50:09.396Z,9.82
2023-03-15T21:52:37.993Z,10.75
2023-03-15T21:55:07.085Z,8.50
2023-03-15T21:57:35.751Z,8.35
2023-03-15T22:00:04.484Z,8.43
2023-03-15T22:02:33.158Z,15.02
2023-03-15T22:05:01.926Z,11.32
2023-03-15T22:07:30.851Z,9.02
2023-03-15T22:09:59.671Z,7.32
2023-03-15T22:12:28.402Z,8.65
2023-03-15T22:15:05.239Z,6.03
2023-03-15T22:17:35.054Z,6.45
2023-03-15T22:20:06.572Z,10.38
2023-03-15T22:22:35.271Z,8.50
2023-03-15T22:25:04.578Z,9.20
2023-03-15T22:27:33.316Z,8.65
2023-03-15T22:30:01.980Z,11.68
2023-03-15T22:32:30.623Z,13.73
2023-03-15T22:34:59.816Z,7.75
2023-03-15T22:37:28.771Z,7.00
2023-03-15T22:39:57.452Z,11.27
2023-03-15T22:42:26.110Z,7.78
2023-03-15T22:44:54.804Z,12.95
2023-03-15T22:47:23.391Z,10.63
2023-03-15T22:49:53.378Z,9.20
2023-03-15T22:52:22.144Z,11.15
2023-03-15T22:54:50.744Z,10.30
2023-03-15T22:57:19.367Z,7.72
2023-03-15T22:59:48.040Z,11.75
2023-03-15T23:02:16.845Z,12.40
2023-03-15T23:04:46.631Z,11.70
2023-03-15T23:07:15.724Z,9.43
2023-03-15T23:09:44.624Z,13.60
2023-03-15T23:12:14.526Z,11.07
2023-03-15T23:14:44.001Z,12.52
2023-03-15T23:17:12.614Z,10.82
2023-03-15T23:19:41.759Z,10.38
2023-03-15T23:22:10.335Z,10.43
2023-03-15T23:24:39.105Z,13.30
2023-03-15T23:27:07.997Z,11.00
2023-03-15T23:29:52.882Z,9.68
2023-03-15T23:32:22.504Z,15.57
2023-03-15T23:34:51.251Z,11.45
2023-03-15T23:37:20.426Z,9.88
2023-03-15T23:39:49.097Z,9.20
2023-03-15T23:42:17.985Z,8.93
2023-03-15T23:44:46.658Z,13.48
2023-03-15T23:47:15.269Z,10.65
2023-03-15T23:49:44.363Z,15.27
2023-03-15T23:52:13.022Z,10.35
2023-03-15T23:54:42.660Z,10.73
2023-03-15T23:57:13.292Z,12.90
2023-03-15T23:59:43.464Z,13.13
